Greenup, Illinois
Current Conditions -  °F | °C
As of 11:53 AM on Tuesday 21 Oct 2014 (Local Time) from KMTO Reporting Station
Broken Clouds Broken Clouds  
Wind Chill: 59°   Ceiling: 3800
Heat Index: 59°   Visibility: 10mi
Dew Point: 44°   Wind: 12mph
Humidity: 58%   Direction: 360°N
Pressure: 30.13"   Gusts: NA
Location:  39.25°N, 88.16°W
Report Text: KMTO 211653Z AUTO 36010KT 10SM BKN038 15/07 A3013 RMK AO2 SLP203 T01500067
Loading
Personal Weather Stations






























Interactive Weather Map
Tropical Storm Tracking
New forecast layout! Learn more

10-Day Weather Forecast

Advertisements
Track Severe Weather on mobile